Time,TemperatureF,DewpointF,PressureIn,WindDirection,WindDirectionDegrees,WindSpeedMPH,WindSpeedGustMPH,Humidity,HourlyPrecipIn,Conditions,Clouds,dailyrainin,SolarRadiationWatts/m^2,SoftwareType,DateUTC
2013-04-14 00:00:00,45.8,38.0,29.57,ESE,115,3.0,3.0,74,0.00,,,0.00,0,Wunderground v.1.15,2013-04-14 05:00:00,
2013-04-14 00:10:00,45.8,38.3,29.57,ESE,115,2.0,2.0,75,0.00,,,0.00,0,Wunderground v.1.15,2013-04-14 05:10:00,
2013-04-14 00:19:00,45.8,38.3,29.56,ESE,121,3.0,4.0,75,0.00,,,0.00,0,Wunderground v.1.15,2013-04-14 05:19:00,
2013-04-14 00:29:00,46.0,38.2,29.59,South,177,3.0,3.0,74,0.00,,,0.00,0,Wunderground v.1.15,2013-04-14 05:29:00,
2013-04-14 00:35:00,45.8,38.3,29.59,SE,146,1.0,3.0,75,0.00,,,0.01,0,Wunderground v.1.15,2013-04-14 05:35:00,
2013-04-14 00:45:00,44.8,39.0,29.59,ESE,118,2.0,2.0,80,0.42,,,0.04,0,Wunderground v.1.15,2013-04-14 05:45:00,
2013-04-14 00:54:00,43.8,39.3,29.59,East,90,0.0,0.0,84,0.14,,,0.09,0,Wunderground v.1.15,2013-04-14 05:54:00,
2013-04-14 01:00:00,43.8,39.3,29.56,ENE,65,1.0,1.0,84,0.10,,,0.09,0,Wunderground v.1.15,2013-04-14 06:00:00,
2013-04-14 01:10:00,43.7,39.5,29.56,ENE,69,2.0,2.0,85,0.04,,,0.09,0,Wunderground v.1.15,2013-04-14 06:10:00,
2013-04-14 01:19:00,43.5,39.3,29.55,ENE,68,1.0,1.0,85,0.00,,,0.09,0,Wunderground v.1.15,2013-04-14 06:19:00,
2013-04-14 01:30:00,43.3,39.1,29.55,East,88,0.0,0.0,85,0.00,,,0.09,0,Wunderground v.1.15,2013-04-14 06:30:00,
2013-04-14 01:40:00,43.3,39.4,29.55,East,89,0.0,0.0,86,0.00,,,0.09,0,Wunderground v.1.15,2013-04-14 06:40:00,
2013-04-14 01:49:00,43.3,39.4,29.54,East,89,0.0,0.0,86,0.00,,,0.09,0,Wunderground v.1.15,2013-04-14 06:49:00,
2013-04-14 01:59:00,43.3,39.4,29.54,ENE,69,0.0,1.0,86,0.00,,,0.09,0,Wunderground v.1.15,2013-04-14 06:59:00,
2013-04-14 02:10:00,43.3,39.4,29.54,East,80,0.0,2.0,86,0.00,,,0.09,0,Wunderground v.1.15,2013-04-14 07:10:00,
2013-04-14 02:15:00,43.3,39.4,29.53,East,80,0.0,2.0,86,0.00,,,0.09,0,Wunderground v.1.15,2013-04-14 07:15:00,
2013-04-14 02:25:00,43.4,39.2,29.53,ENE,58,1.0,1.0,85,0.00,,,0.09,0,Wunderground v.1.15,2013-04-14 07:25:00,
2013-04-14 02:35:00,43.4,39.2,29.53,ENE,64,2.0,7.0,85,0.00,,,0.09,0,Wunderground v.1.15,2013-04-14 07:35:00,
2013-04-14 02:40:00,43.5,39.3,29.53,ENE,62,2.0,3.0,85,0.00,,,0.09,0,Wunderground v.1.15,2013-04-14 07:40:00,
2013-04-14 02:49:00,43.5,39.3,29.53,ENE,75,2.0,2.0,85,0.00,,,0.09,0,Wunderground v.1.15,2013-04-14 07:49:00,
2013-04-14 02:55:00,43.6,39.4,29.53,ENE,65,2.0,3.0,85,0.00,,,0.09,0,Wunderground v.1.15,2013-04-14 07:55:00,
2013-04-14 03:05:00,43.6,39.4,29.51,East,88,1.0,1.0,85,0.00,,,0.09,0,Wunderground v.1.15,2013-04-14 08:05:00,
2013-04-14 03:10:00,43.8,39.6,29.51,ESE,102,1.0,1.0,85,0.00,,,0.09,0,Wunderground v.1.15,2013-04-14 08:10:00,
2013-04-14 03:20:00,43.8,39.6,29.50,SE,146,0.0,0.0,85,0.00,,,0.09,0,Wunderground v.1.15,2013-04-14 08:20:00,
2013-04-14 03:29:00,43.8,39.6,29.47,SSE,147,1.0,1.0,85,0.00,,,0.09,0,Wunderground v.1.15,2013-04-14 08:29:00,
2013-04-14 03:40:00,43.8,39.6,29.47,ENE,71,2.0,7.0,85,0.00,,,0.09,0,Wunderground v.1.15,2013-04-14 08:40:00,
2013-04-14 03:50:00,43.7,39.5,29.45,ESE,107,3.0,3.0,85,0.00,,,0.09,0,Wunderground v.1.15,2013-04-14 08:50:00,
2013-04-14 03:59:00,43.8,39.6,29.43,East,92,3.0,3.0,85,0.00,,,0.09,0,Wunderground v.1.15,2013-04-14 08:59:00,
2013-04-14 04:04:00,43.9,39.7,29.43,ESE,116,4.0,4.0,85,0.00,,,0.09,0,Wunderground v.1.15,2013-04-14 09:04:00,
2013-04-14 04:15:00,44.1,39.9,29.42,South,183,4.0,4.0,85,0.00,,,0.09,0,Wunderground v.1.15,2013-04-14 09:15:00,
2013-04-14 04:25:00,44.4,40.2,29.42,SE,126,3.0,3.0,85,0.00,,,0.09,0,Wunderground v.1.15,2013-04-14 09:25:00,
2013-04-14 04:30:00,44.5,40.3,29.41,SE,139,3.0,3.0,85,0.00,,,0.09,0,Wunderground v.1.15,2013-04-14 09:30:00,
2013-04-14 04:45:00,44.6,40.4,29.40,East,93,1.0,3.0,85,0.00,,,0.09,0,Wunderground v.1.15,2013-04-14 09:45:00,
2013-04-14 04:55:00,44.8,40.6,29.40,SE,128,1.0,1.0,85,0.00,,,0.09,0,Wunderground v.1.15,2013-04-14 09:55:00,
2013-04-14 05:04:00,45.3,41.1,29.40,ESE,105,2.0,2.0,85,0.00,,,0.09,0,Wunderground v.1.15,2013-04-14 10:04:00,
2013-04-14 05:09:00,45.5,41.3,29.40,ESE,120,3.0,3.0,85,0.00,,,0.10,0,Wunderground v.1.15,2013-04-14 10:09:00,
2013-04-14 05:20:00,45.7,41.8,29.39,SE,125,3.0,4.0,86,0.00,,,0.10,0,Wunderground v.1.15,2013-04-14 10:20:00,
2013-04-14 05:30:00,46.1,41.8,29.38,ESE,119,3.0,3.0,85,0.00,,,0.10,0,Wunderground v.1.15,2013-04-14 10:30:00,
2013-04-14 05:40:00,46.9,42.6,29.38,SE,130,4.0,4.0,85,0.00,,,0.10,0,Wunderground v.1.15,2013-04-14 10:40:00,
2013-04-14 05:50:00,47.3,42.7,29.37,ESE,123,4.0,4.0,84,0.00,,,0.10,0,Wunderground v.1.15,2013-04-14 10:50:00,
2013-04-14 06:00:00,47.5,42.6,29.36,SSE,149,4.0,4.0,83,0.00,,,0.10,0,Wunderground v.1.15,2013-04-14 11:00:00,
2013-04-14 06:10:00,47.5,42.3,29.36,SE,128,3.0,4.0,82,0.00,,,0.10,0,Wunderground v.1.15,2013-04-14 11:10:00,
2013-04-14 06:19:00,47.6,42.4,29.35,ESE,111,4.0,4.0,82,0.00,,,0.10,0,Wunderground v.1.15,2013-04-14 11:19:00,
2013-04-14 06:30:00,47.6,42.4,29.34,ESE,117,3.0,3.0,82,0.00,,,0.10,0,Wunderground v.1.15,2013-04-14 11:30:00,
2013-04-14 06:40:00,47.7,42.5,29.34,ESE,117,4.0,7.0,82,0.00,,,0.10,0,Wunderground v.1.15,2013-04-14 11:40:00,
2013-04-14 06:50:00,47.8,42.6,29.33,ESE,120,4.0,7.0,82,0.00,,,0.10,0,Wunderground v.1.15,2013-04-14 11:50:00,
2013-04-14 06:59:00,47.9,42.7,29.33,ESE,123,3.0,3.0,82,0.00,,,0.10,18,Wunderground v.1.15,2013-04-14 11:59:00,
2013-04-14 07:09:00,48.0,42.8,29.33,SE,129,2.0,2.0,82,0.00,,,0.10,33,Wunderground v.1.15,2013-04-14 12:09:00,
2013-04-14 07:15:00,48.1,42.9,29.33,SE,145,2.0,2.0,82,0.00,,,0.10,44,Wunderground v.1.15,2013-04-14 12:15:00,
2013-04-14 07:25:00,48.4,43.2,29.33,SE,131,1.0,1.0,82,0.00,,,0.10,70,Wunderground v.1.15,2013-04-14 12:25:00,
2013-04-14 07:34:00,48.8,43.5,29.32,SE,126,2.0,5.0,82,0.00,,,0.10,91,Wunderground v.1.15,2013-04-14 12:34:00,
2013-04-14 07:45:00,49.3,44.0,29.31,ESE,103,3.0,3.0,82,0.00,,,0.10,132,Wunderground v.1.15,2013-04-14 12:45:00,
2013-04-14 07:55:00,49.9,44.3,29.31,SE,130,3.0,7.0,81,0.00,,,0.10,144,Wunderground v.1.15,2013-04-14 12:55:00,
2013-04-14 08:05:00,51.0,45.4,29.30,SE,130,4.0,5.0,81,0.00,,,0.10,149,Wunderground v.1.15,2013-04-14 13:05:00,
2013-04-14 08:14:00,52.3,46.0,29.29,SE,146,5.0,7.0,79,0.00,,,0.10,220,Wunderground v.1.15,2013-04-14 13:14:00,
2013-04-14 08:20:00,52.7,46.0,29.29,SE,127,5.0,5.0,78,0.00,,,0.10,148,Wunderground v.1.15,2013-04-14 13:20:00,
2013-04-14 08:25:00,52.8,46.1,29.29,SE,133,5.0,7.0,78,0.00,,,0.10,158,Wunderground v.1.15,2013-04-14 13:25:00,
2013-04-14 08:35:00,53.1,46.1,29.28,ESE,118,5.0,5.0,77,0.00,,,0.10,123,Wunderground v.1.15,2013-04-14 13:35:00,
2013-04-14 08:40:00,53.2,46.5,29.28,ESE,108,5.0,10.0,78,0.00,,,0.10,93,Wunderground v.1.15,2013-04-14 13:40:00,
2013-04-14 08:49:00,53.3,46.3,29.26,SE,126,6.0,6.0,77,0.00,,,0.10,70,Wunderground v.1.15,2013-04-14 13:49:00,
2013-04-14 08:55:00,53.3,46.3,29.26,SE,142,5.0,6.0,77,0.00,,,0.10,67,Wunderground v.1.15,2013-04-14 13:55:00,
2013-04-14 09:05:00,53.5,46.8,29.25,SSW,194,4.0,4.0,78,0.00,,,0.10,79,Wunderground v.1.15,2013-04-14 14:05:00,
2013-04-14 09:14:00,53.8,46.8,29.25,SE,139,4.0,6.0,77,0.00,,,0.10,97,Wunderground v.1.15,2013-04-14 14:14:00,
2013-04-14 09:25:00,54.1,47.4,29.25,SE,146,4.0,7.0,78,0.00,,,0.10,142,Wunderground v.1.15,2013-04-14 14:25:00,
2013-04-14 09:30:00,54.3,47.6,29.24,SE,144,4.0,4.0,78,0.00,,,0.10,167,Wunderground v.1.15,2013-04-14 14:30:00,
2013-04-14 09:39:00,54.8,47.7,29.24,SSE,150,3.0,5.0,77,0.00,,,0.10,162,Wunderground v.1.15,2013-04-14 14:39:00,
2013-04-14 09:44:00,55.0,47.9,29.24,ESE,115,3.0,5.0,77,0.00,,,0.10,160,Wunderground v.1.15,2013-04-14 14:44:00,
2013-04-14 09:54:00,55.5,48.4,29.24,SE,132,2.0,5.0,77,0.00,,,0.10,218,Wunderground v.1.15,2013-04-14 14:54:00,
2013-04-14 10:00:00,55.9,48.8,29.24,SE,138,3.0,3.0,77,0.00,,,0.10,213,Wunderground v.1.15,2013-04-14 15:00:00,
2013-04-14 10:10:00,57.1,49.2,29.24,SE,136,4.0,4.0,75,0.00,,,0.10,292,Wunderground v.1.15,2013-04-14 15:10:00,
2013-04-14 10:20:00,58.4,49.8,29.23,SSE,147,3.0,3.0,73,0.00,,,0.10,306,Wunderground v.1.15,2013-04-14 15:20:00,
2013-04-14 10:24:00,58.9,49.9,29.23,South,182,4.0,4.0,72,0.00,,,0.10,322,Wunderground v.1.15,2013-04-14 15:24:00,
2013-04-14 10:34:00,59.9,50.8,29.23,SE,131,3.0,5.0,72,0.00,,,0.10,295,Wunderground v.1.15,2013-04-14 15:34:00,
2013-04-14 10:45:00,61.7,51.0,29.23,SE,141,5.0,6.0,68,0.00,,,0.10,455,Wunderground v.1.15,2013-04-14 15:45:00,
2013-04-14 10:54:00,62.6,51.5,29.23,SE,142,4.0,9.0,67,0.00,,,0.10,327,Wunderground v.1.15,2013-04-14 15:54:00,
2013-04-14 11:04:00,63.1,52.0,29.23,SSE,152,5.0,15.0,67,0.00,,,0.10,265,Wunderground v.1.15,2013-04-14 16:04:00,
2013-04-14 11:15:00,64.0,52.0,29.23,South,182,6.0,12.0,65,0.00,,,0.10,332,Wunderground v.1.15,2013-04-14 16:15:00,
2013-04-14 11:25:00,64.5,52.5,29.23,South,180,5.0,12.0,65,0.00,,,0.10,336,Wunderground v.1.15,2013-04-14 16:25:00,
2013-04-14 11:34:00,64.8,52.8,29.23,South,171,4.0,12.0,65,0.00,,,0.10,294,Wunderground v.1.15,2013-04-14 16:34:00,
2013-04-14 11:45:00,65.0,52.5,29.22,SSE,155,5.0,7.0,64,0.00,,,0.10,118,Wunderground v.1.15,2013-04-14 16:45:00,
2013-04-14 11:55:00,65.1,52.6,29.22,SSE,148,4.0,13.0,64,0.00,,,0.10,160,Wunderground v.1.15,2013-04-14 16:55:00,
2013-04-14 12:04:00,65.5,52.6,29.22,SW,231,4.0,12.0,63,0.00,,,0.10,294,Wunderground v.1.15,2013-04-14 17:04:00,
2013-04-14 12:15:00,66.4,52.1,29.22,SSE,152,4.0,6.0,60,0.00,,,0.10,434,Wunderground v.1.15,2013-04-14 17:15:00,
2013-04-14 12:25:00,67.1,52.3,29.22,SSW,192,6.0,12.0,59,0.00,,,0.10,353,Wunderground v.1.15,2013-04-14 17:25:00,
2013-04-14 12:30:00,66.9,51.6,29.22,SW,232,6.0,6.0,58,0.00,,,0.10,404,Wunderground v.1.15,2013-04-14 17:30:00,
2013-04-14 12:40:00,66.8,51.5,29.22,SE,142,4.0,4.0,58,0.00,,,0.10,378,Wunderground v.1.15,2013-04-14 17:40:00,
2013-04-14 12:49:00,67.1,51.8,29.22,WSW,237,3.0,3.0,58,0.00,,,0.10,369,Wunderground v.1.15,2013-04-14 17:49:00,
2013-04-14 12:55:00,67.1,51.8,29.22,SSW,198,3.0,12.0,58,0.00,,,0.10,288,Wunderground v.1.15,2013-04-14 17:55:00,
2013-04-14 13:05:00,67.3,52.0,29.22,SW,230,3.0,13.0,58,0.00,,,0.10,322,Wunderground v.1.15,2013-04-14 18:05:00,
2013-04-14 13:15:00,66.9,51.2,29.22,WSW,240,4.0,12.0,57,0.00,,,0.10,248,Wunderground v.1.15,2013-04-14 18:15:00,
2013-04-14 13:24:00,66.1,50.4,29.22,WSW,246,3.0,4.0,57,0.00,,,0.10,278,Wunderground v.1.15,2013-04-14 18:24:00,
2013-04-14 13:35:00,66.3,50.1,29.23,SW,225,4.0,4.0,56,0.00,,,0.10,371,Wunderground v.1.15,2013-04-14 18:35:00,
2013-04-14 13:40:00,66.3,50.1,29.23,SW,231,6.0,6.0,56,0.00,,,0.10,262,Wunderground v.1.15,2013-04-14 18:40:00,
2013-04-14 13:50:00,64.2,50.0,29.24,West,275,5.0,12.0,60,0.00,,,0.10,223,Wunderground v.1.15,2013-04-14 18:50:00,
2013-04-14 14:00:00,59.1,49.3,29.28,WNW,290,7.0,7.0,70,0.00,,,0.10,251,Wunderground v.1.15,2013-04-14 19:00:00,
2013-04-14 14:10:00,59.2,49.0,29.28,NW,320,2.0,2.0,69,0.00,,,0.10,232,Wunderground v.1.15,2013-04-14 19:10:00,
2013-04-14 14:20:00,59.1,48.9,29.29,West,265,2.0,2.0,69,0.00,,,0.10,172,Wunderground v.1.15,2013-04-14 19:20:00,
2013-04-14 14:29:00,59.0,48.1,29.29,NW,309,1.0,12.0,67,0.00,,,0.10,155,Wunderground v.1.15,2013-04-14 19:29:00,
2013-04-14 14:39:00,58.6,48.1,29.29,WSW,246,2.0,12.0,68,0.00,,,0.10,144,Wunderground v.1.15,2013-04-14 19:39:00,
2013-04-14 14:45:00,58.4,47.9,29.31,NW,309,2.0,12.0,68,0.00,,,0.10,93,Wunderground v.1.15,2013-04-14 19:45:00,
2013-04-14 14:50:00,58.2,47.7,29.31,West,261,2.0,12.0,68,0.00,,,0.10,100,Wunderground v.1.15,2013-04-14 19:50:00,
2013-04-14 14:59:00,57.5,47.4,29.32,WSW,238,4.0,12.0,69,0.00,,,0.10,83,Wunderground v.1.15,2013-04-14 19:59:00,
2013-04-14 15:09:00,57.0,46.9,29.32,West,277,2.0,2.0,69,0.00,,,0.10,62,Wunderground v.1.15,2013-04-14 20:09:00,
2013-04-14 15:15:00,56.8,47.1,29.32,WSW,252,1.0,12.0,70,0.00,,,0.10,58,Wunderground v.1.15,2013-04-14 20:15:00,
2013-04-14 15:20:00,56.7,47.4,29.32,West,262,2.0,12.0,71,0.00,,,0.10,63,Wunderground v.1.15,2013-04-14 20:20:00,
2013-04-14 15:29:00,56.6,47.7,29.33,West,271,1.0,12.0,72,0.00,,,0.10,76,Wunderground v.1.15,2013-04-14 20:29:00,
2013-04-14 15:39:00,56.4,47.9,29.33,WSW,251,3.0,3.0,73,0.00,,,0.10,118,Wunderground v.1.15,2013-04-14 20:39:00,
2013-04-14 15:45:00,56.4,47.9,29.35,WSW,242,2.0,12.0,73,0.00,,,0.10,114,Wunderground v.1.15,2013-04-14 20:45:00,
2013-04-14 15:55:00,56.4,47.9,29.35,WSW,253,4.0,4.0,73,0.00,,,0.10,118,Wunderground v.1.15,2013-04-14 20:55:00,
2013-04-14 16:04:00,57.0,48.4,29.35,WSW,255,2.0,12.0,73,0.00,,,0.10,223,Wunderground v.1.15,2013-04-14 21:04:00,
2013-04-14 16:09:00,57.4,48.4,29.35,West,261,2.0,12.0,72,0.00,,,0.10,232,Wunderground v.1.15,2013-04-14 21:09:00,
2013-04-14 16:15:00,57.7,48.4,29.36,SW,232,3.0,12.0,71,0.00,,,0.10,265,Wunderground v.1.15,2013-04-14 21:15:00,
2013-04-14 16:25:00,58.3,48.6,29.36,West,265,2.0,12.0,70,0.00,,,0.10,376,Wunderground v.1.15,2013-04-14 21:25:00,
2013-04-14 16:35:00,59.3,48.3,29.35,WSW,252,5.0,12.0,67,0.00,,,0.10,225,Wunderground v.1.15,2013-04-14 21:35:00,
2013-04-14 16:40:00,60.0,48.6,29.35,WSW,257,6.0,6.0,66,0.00,,,0.10,861,Wunderground v.1.15,2013-04-14 21:40:00,
2013-04-14 16:45:00,60.5,47.8,29.36,West,267,5.0,12.0,63,0.00,,,0.10,237,Wunderground v.1.15,2013-04-14 21:45:00,
2013-04-14 16:50:00,60.5,47.4,29.36,WNW,286,4.0,4.0,62,0.00,,,0.10,279,Wunderground v.1.15,2013-04-14 21:50:00,
2013-04-14 16:59:00,60.3,46.8,29.35,WSW,257,4.0,12.0,61,0.00,,,0.10,318,Wunderground v.1.15,2013-04-14 21:59:00,
2013-04-14 17:09:00,60.5,47.0,29.35,SW,230,5.0,12.0,61,0.00,,,0.10,229,Wunderground v.1.15,2013-04-14 22:09:00,
2013-04-14 17:15:00,60.2,45.4,29.36,WNW,286,5.0,12.0,58,0.00,,,0.10,267,Wunderground v.1.15,2013-04-14 22:15:00,
2013-04-14 17:20:00,60.1,45.3,29.36,West,268,6.0,6.0,58,0.00,,,0.10,183,Wunderground v.1.15,2013-04-14 22:20:00,
2013-04-14 17:29:00,59.6,43.9,29.37,West,267,7.0,12.0,56,0.00,,,0.10,218,Wunderground v.1.15,2013-04-14 22:29:00,
2013-04-14 17:39:00,59.4,42.3,29.37,West,259,6.0,6.0,53,0.00,,,0.10,174,Wunderground v.1.15,2013-04-14 22:39:00,
2013-04-14 17:45:00,59.3,42.6,29.38,WNW,290,5.0,12.0,54,0.00,,,0.10,142,Wunderground v.1.15,2013-04-14 22:45:00,
2013-04-14 17:50:00,59.2,42.6,29.38,West,261,4.0,12.0,54,0.00,,,0.10,121,Wunderground v.1.15,2013-04-14 22:50:00,
2013-04-14 17:59:00,58.9,42.3,29.39,WNW,286,5.0,5.0,54,0.00,,,0.10,67,Wunderground v.1.15,2013-04-14 22:59:00,
2013-04-14 18:09:00,58.7,42.6,29.39,West,267,1.0,12.0,55,0.00,,,0.10,62,Wunderground v.1.15,2013-04-14 23:09:00,
2013-04-14 18:15:00,58.7,43.0,29.41,WNW,290,1.0,12.0,56,0.00,,,0.10,58,Wunderground v.1.15,2013-04-14 23:15:00,
2013-04-14 18:25:00,58.7,43.0,29.41,WNW,300,2.0,12.0,56,0.00,,,0.10,47,Wunderground v.1.15,2013-04-14 23:25:00,
2013-04-14 18:35:00,58.7,43.5,29.41,West,265,0.0,12.0,57,0.00,,,0.10,79,Wunderground v.1.15,2013-04-14 23:35:00,
2013-04-14 18:44:00,59.0,43.8,29.42,West,265,0.0,12.0,57,0.00,,,0.10,90,Wunderground v.1.15,2013-04-14 23:44:00,
2013-04-14 18:49:00,59.1,43.4,29.42,West,269,0.0,12.0,56,0.00,,,0.10,74,Wunderground v.1.15,2013-04-14 23:49:00,
2013-04-14 18:55:00,59.2,43.5,29.42,West,261,1.0,12.0,56,0.00,,,0.10,69,Wunderground v.1.15,2013-04-14 23:55:00,
2013-04-14 19:00:00,59.2,42.1,29.42,SW,231,1.0,12.0,53,0.00,,,0.10,47,Wunderground v.1.15,2013-04-15 00:00:00,
2013-04-14 19:10:00,59.2,40.6,29.42,West,259,2.0,12.0,50,0.00,,,0.10,25,Wunderground v.1.15,2013-04-15 00:10:00,
2013-04-14 19:15:00,59.2,40.0,29.43,West,261,1.0,12.0,49,0.00,,,0.10,26,Wunderground v.1.15,2013-04-15 00:15:00,
2013-04-14 19:24:00,59.0,39.9,29.43,West,261,1.0,12.0,49,0.00,,,0.10,21,Wunderground v.1.15,2013-04-15 00:24:00,
2013-04-14 19:35:00,58.9,39.8,29.43,WSW,245,2.0,12.0,49,0.00,,,0.10,12,Wunderground v.1.15,2013-04-15 00:35:00,
2013-04-14 19:45:00,58.7,39.6,29.43,West,278,4.0,12.0,49,0.00,,,0.10,14,Wunderground v.1.15,2013-04-15 00:45:00,
2013-04-14 19:55:00,58.3,40.2,29.43,WNW,286,6.0,12.0,51,0.00,,,0.10,7,Wunderground v.1.15,2013-04-15 00:55:00,
2013-04-14 20:05:00,57.8,38.8,29.45,WNW,292,6.0,12.0,49,0.00,,,0.10,0,Wunderground v.1.15,2013-04-15 01:05:00,
2013-04-14 20:14:00,57.3,37.8,29.47,WNW,291,7.0,12.0,48,0.00,,,0.10,0,Wunderground v.1.15,2013-04-15 01:14:00,
2013-04-14 20:24:00,56.8,37.3,29.47,WNW,300,5.0,12.0,48,0.00,,,0.10,0,Wunderground v.1.15,2013-04-15 01:24:00,
2013-04-14 20:30:00,56.5,37.6,29.47,WNW,294,3.0,3.0,49,0.00,,,0.10,0,Wunderground v.1.15,2013-04-15 01:30:00,
2013-04-14 20:40:00,56.1,37.2,29.47,WSW,246,3.0,12.0,49,0.00,,,0.10,0,Wunderground v.1.15,2013-04-15 01:40:00,
2013-04-14 20:49:00,55.9,37.5,29.49,NW,312,2.0,2.0,50,0.00,,,0.10,0,Wunderground v.1.15,2013-04-15 01:49:00,
2013-04-14 20:54:00,55.7,37.8,29.49,NW,312,2.0,4.0,51,0.00,,,0.10,0,Wunderground v.1.15,2013-04-15 01:54:00,
2013-04-14 21:00:00,55.6,37.7,29.50,WNW,302,3.0,12.0,51,0.00,,,0.10,0,Wunderground v.1.15,2013-04-15 02:00:00,
2013-04-14 21:05:00,55.5,37.7,29.50,WNW,300,3.0,12.0,51,0.00,,,0.10,0,Wunderground v.1.15,2013-04-15 02:05:00,
2013-04-14 21:15:00,55.1,37.8,29.51,WNW,302,2.0,6.0,52,0.00,,,0.10,0,Wunderground v.1.15,2013-04-15 02:15:00,
2013-04-14 21:19:00,54.9,37.6,29.51,West,259,4.0,12.0,52,0.00,,,0.10,0,Wunderground v.1.15,2013-04-15 02:19:00,
2013-04-14 21:30:00,54.3,37.5,29.51,WNW,286,3.0,3.0,53,0.00,,,0.10,0,Wunderground v.1.15,2013-04-15 02:30:00,
2013-04-14 21:40:00,53.7,36.5,29.51,West,280,2.0,2.0,52,0.00,,,0.10,0,Wunderground v.1.15,2013-04-15 02:40:00,
2013-04-14 21:45:00,53.5,35.8,29.52,WNW,290,1.0,3.0,51,0.00,,,0.10,0,Wunderground v.1.15,2013-04-15 02:45:00,
2013-04-14 21:54:00,52.9,35.2,29.52,WNW,285,0.0,12.0,51,0.00,,,0.10,0,Wunderground v.1.15,2013-04-15 02:54:00,
2013-04-14 22:05:00,52.2,35.1,29.53,West,273,1.0,12.0,52,0.00,,,0.10,0,Wunderground v.1.15,2013-04-15 03:05:00,
2013-04-14 22:10:00,51.9,35.3,29.53,WNW,294,0.0,12.0,53,0.00,,,0.10,0,Wunderground v.1.15,2013-04-15 03:10:00,
2013-04-14 22:20:00,51.5,34.9,29.54,NW,309,1.0,1.0,53,0.00,,,0.10,0,Wunderground v.1.15,2013-04-15 03:20:00,
2013-04-14 22:29:00,50.9,34.8,29.54,WNW,294,1.0,1.0,54,0.00,,,0.10,0,Wunderground v.1.15,2013-04-15 03:29:00,
2013-04-14 22:39:00,50.5,34.5,29.54,WNW,292,1.0,1.0,54,0.00,,,0.10,0,Wunderground v.1.15,2013-04-15 03:39:00,
2013-04-14 22:44:00,50.3,34.7,29.55,WNW,292,0.0,1.0,55,0.00,,,0.10,0,Wunderground v.1.15,2013-04-15 03:44:00,
2013-04-14 22:49:00,50.2,35.1,29.55,WNW,292,0.0,0.0,56,0.00,,,0.10,0,Wunderground v.1.15,2013-04-15 03:49:00,
2013-04-14 22:59:00,49.6,35.0,29.55,WNW,292,0.0,0.0,57,0.00,,,0.10,0,Wunderground v.1.15,2013-04-15 03:59:00,
2013-04-14 23:05:00,49.4,35.2,29.55,WNW,292,0.0,0.0,58,0.00,,,0.10,0,Wunderground v.1.15,2013-04-15 04:05:00,
2013-04-14 23:10:00,49.2,35.0,29.55,WNW,292,0.0,0.0,58,0.00,,,0.10,0,Wunderground v.1.15,2013-04-15 04:10:00,
2013-04-14 23:20:00,48.6,34.9,29.55,WNW,292,0.0,0.0,59,0.00,,,0.10,0,Wunderground v.1.15,2013-04-15 04:20:00,
2013-04-14 23:24:00,48.3,34.6,29.55,WNW,286,0.0,0.0,59,0.00,,,0.10,0,Wunderground v.1.15,2013-04-15 04:24:00,
2013-04-14 23:35:00,47.9,35.1,29.55,West,281,0.0,1.0,61,0.00,,,0.10,0,Wunderground v.1.15,2013-04-15 04:35:00,
2013-04-14 23:45:00,47.5,34.7,29.56,West,281,0.0,7.0,61,0.00,,,0.10,0,Wunderground v.1.15,2013-04-15 04:45:00,
2013-04-14 23:50:00,47.3,34.9,29.56,West,281,0.0,7.0,62,0.00,,,0.10,0,Wunderground v.1.15,2013-04-15 04:50:00,